Time;durP1;ratioP1;P1;durP2;ratioP2;P2;SDS_P1;SDS_P2;PMS_P1;PMS_P2;Temp;Humidity;BMP_temperature;BMP_pressure;BME280_temperature;BME280_humidity;BME280_pressure;Samples;Min_cycle;Max_cycle;Signal;HPM_P1;HPM_P2
2022/04/28 00:00:35;;;;;;;7.67;7.27;;;;;;;8.37;77.23;102172.41;5116779;28;20187;-68
2022/04/28 00:03:02;;;;;;;7.90;7.40;;;;;;;8.33;77.37;102171.50;5116158;28;20182;-68
2022/04/28 00:05:29;;;;;;;8.07;7.77;;;;;;;8.24;77.56;102171.59;5116380;28;20186;-68
2022/04/28 00:07:55;;;;;;;9.47;8.63;;;;;;;8.28;77.43;102168.94;5116019;28;20254;-68
2022/04/28 00:10:23;;;;;;;8.30;7.83;;;;;;;8.22;77.75;102176.84;5116296;28;20220;-68
2022/04/28 00:12:50;;;;;;;9.03;8.27;;;;;;;8.19;77.84;102173.38;5116154;28;20195;-68
2022/04/28 00:15:16;;;;;;;8.80;8.40;;;;;;;8.15;77.94;102172.53;5115599;28;20180;-68
2022/04/28 00:17:42;;;;;;;8.60;8.30;;;;;;;8.13;78.43;102173.41;5115230;28;20292;-68
2022/04/28 00:20:09;;;;;;;8.30;7.70;;;;;;;8.10;78.47;102170.84;5115794;28;20224;-68
2022/04/28 00:22:36;;;;;;;7.63;7.13;;;;;;;8.06;78.65;102166.50;5115793;28;20212;-68
2022/04/28 00:25:04;;;;;;;8.53;8.10;;;;;;;8.08;78.98;102170.00;5097719;28;20254;-68
2022/04/28 00:27:31;;;;;;;8.53;7.80;;;;;;;8.05;78.75;102172.63;5115728;28;20244;-68
2022/04/28 00:29:58;;;;;;;8.50;8.03;;;;;;;7.93;79.07;102165.72;5115678;28;20257;-68
2022/04/28 00:32:24;;;;;;;9.10;8.53;;;;;;;7.88;79.42;102168.38;5116153;28;20205;-67
2022/04/28 00:34:51;;;;;;;7.63;7.40;;;;;;;7.86;79.26;102164.03;5115495;28;20655;-67
2022/04/28 00:37:18;;;;;;;10.83;8.73;;;;;;;7.74;79.95;102172.81;5115331;28;20225;-67
2022/04/28 00:39:45;;;;;;;9.70;9.00;;;;;;;7.80;80.13;102170.19;5116030;28;20234;-67
2022/04/28 00:42:14;;;;;;;8.27;7.90;;;;;;;7.74;80.43;102170.22;5115367;28;20219;-67
2022/04/28 00:44:41;;;;;;;8.43;7.87;;;;;;;7.72;80.73;102171.97;5097121;28;20221;-68
2022/04/28 00:47:09;;;;;;;9.43;8.30;;;;;;;7.72;81.03;102169.38;5115811;28;20622;-68
2022/04/28 00:52:22;;;;;;;11.27;7.67;;;;;;;7.69;81.13;102171.97;5115542;28;20165;-68
2022/04/28 00:54:51;;;;;;;9.70;9.00;;;;;;;7.66;81.34;102172.88;5115298;28;20240;-68
2022/04/28 00:57:18;;;;;;;8.63;8.13;;;;;;;7.63;81.37;102172.00;5115307;28;20616;-68
2022/04/28 00:59:47;;;;;;;8.23;7.93;;;;;;;7.61;81.42;102174.63;5096755;28;20675;-68
2022/04/28 01:02:13;;;;;;;8.37;8.03;;;;;;;7.60;81.61;102172.03;5114999;28;20189;-68
2022/04/28 01:04:40;;;;;;;10.50;9.83;;;;;;;7.54;81.74;102172.94;5096664;28;20234;-68
2022/04/28 01:07:07;;;;;;;9.30;8.40;;;;;;;7.55;81.97;102169.44;5115093;28;20232;-68
2022/04/28 01:09:37;;;;;;;9.40;8.83;;;;;;;7.54;82.03;102167.72;5096970;28;20683;-68
2022/04/28 01:12:15;;;;;;;9.87;9.47;;;;;;;7.52;82.19;102169.47;5097129;28;20193;-68
2022/04/28 01:14:45;;;;;;;10.10;9.10;;;;;;;7.50;82.31;102168.63;5096950;28;20201;-68
2022/04/28 01:17:12;;;;;;;9.30;8.73;;;;;;;7.48;82.65;102172.09;5096345;28;20213;-68
2022/04/28 01:19:44;;;;;;;9.53;9.03;;;;;;;7.44;82.82;102176.47;5097028;28;20200;-68
2022/04/28 01:22:10;;;;;;;8.93;8.07;;;;;;;7.37;83.12;102170.44;5114625;28;20238;-67
2022/04/28 01:24:37;;;;;;;9.53;9.03;;;;;;;7.36;83.36;102173.91;5096312;28;20215;-67
2022/04/28 01:27:06;;;;;;;8.90;8.33;;;;;;;7.33;83.48;102184.31;5096725;28;20220;-67
2022/04/28 01:29:34;;;;;;;14.80;10.33;;;;;;;7.37;83.81;102186.06;5114481;28;20244;-67
2022/04/28 01:32:01;;;;;;;10.50;9.50;;;;;;;7.29;84.26;102181.75;5096202;28;20190;-67
2022/04/28 01:34:31;;;;;;;8.97;8.43;;;;;;;7.26;84.11;102185.22;5096368;28;20205;-67
2022/04/28 01:36:57;;;;;;;9.60;8.97;;;;;;;7.20;84.66;102187.84;5095971;28;20209;-68
2022/04/28 01:39:24;;;;;;;9.77;9.10;;;;;;;7.24;84.78;102181.75;5096054;28;20193;-68
2022/04/28 01:41:51;;;;;;;8.97;8.43;;;;;;;7.20;85.05;102192.19;5096043;28;20719;-68
2022/04/28 01:44:17;;;;;;;9.53;8.93;;;;;;;7.13;85.15;102197.41;5096020;28;20185;-68
2022/04/28 01:46:44;;;;;;;9.53;8.93;;;;;;;7.15;85.36;102189.63;5114413;28;20205;-68
2022/04/28 01:49:28;;;;;;;9.47;8.87;;;;;;;7.09;85.43;102195.72;5096163;28;20200;-68
2022/04/28 01:55:26;;;;;;;9.47;8.97;;;;;;;6.99;85.64;102186.19;5114351;28;20218;-67
2022/04/28 01:58:00;;;;;;;10.17;9.20;;;;;;;7.06;85.62;102184.41;5095766;28;20229;-68
2022/04/28 02:00:32;;;;;;;10.43;9.77;;;;;;;6.97;86.16;102189.66;5095763;28;20238;-68
2022/04/28 02:03:07;;;;;;;9.90;8.93;;;;;;;6.92;86.33;102186.19;5095776;28;20185;-68
2022/04/28 02:05:34;;;;;;;10.73;9.83;;;;;;;6.87;86.55;102192.28;5095689;28;20189;-67
2022/04/28 02:08:03;;;;;;;10.47;9.33;;;;;;;6.83;86.43;102187.09;5095854;28;20567;-67
2022/04/28 02:10:29;;;;;;;9.57;9.07;;;;;;;6.82;86.41;102190.56;5095638;28;20645;-67
2022/04/28 02:12:57;;;;;;;8.80;8.40;;;;;;;6.77;86.66;102187.97;5114095;28;20612;-67
2022/04/28 02:15:33;;;;;;;10.20;9.23;;;;;;;6.75;86.85;102187.09;5114578;28;20196;-67
2022/04/28 02:18:25;;;;;;;10.13;9.33;;;;;;;6.70;87.21;102185.38;5113516;28;20220;-67
2022/04/28 02:20:51;;;;;;;8.33;7.93;;;;;;;6.69;87.52;102184.50;5095541;28;20189;-67
2022/04/28 02:23:18;;;;;;;8.23;7.87;;;;;;;6.67;87.43;102194.06;5114271;28;20584;-67
2022/04/28 02:25:45;;;;;;;9.60;9.17;;;;;;;6.61;87.77;102188.88;5095479;28;20204;-67
2022/04/28 02:28:12;;;;;;;10.30;9.43;;;;;;;6.58;87.84;102194.09;5113664;28;20200;-67
2022/04/28 02:30:38;;;;;;;10.00;9.27;;;;;;;6.57;87.84;102192.31;5095425;28;20710;-67
2022/04/28 02:33:11;;;;;;;10.67;9.73;;;;;;;6.51;88.04;102192.34;5095348;28;20242;-67
2022/04/28 02:36:04;;;;;;;9.63;9.13;;;;;;;6.50;88.01;102194.09;5110581;28;20313;-67
2022/04/28 02:38:34;;;;;;;9.50;8.90;;;;;;;6.43;88.37;102188.88;5095204;28;20224;-68
2022/04/28 02:41:04;;;;;;;10.23;9.30;;;;;;;6.41;88.75;102199.28;5099835;28;20199;-68
2022/04/28 02:43:31;;;;;;;10.53;9.63;;;;;;;6.38;88.55;102188.88;5099434;28;20621;-68
2022/04/28 02:46:04;;;;;;;9.10;8.60;;;;;;;6.33;88.77;102190.63;5099685;28;20196;-68
2022/04/28 02:48:49;;;;;;;11.47;10.53;;;;;;;6.24;89.27;102190.63;5100137;28;20203;-68
2022/04/28 02:51:16;;;;;;;9.93;9.07;;;;;;;6.24;89.48;102196.69;5099546;28;20199;-67
2022/04/28 02:53:44;;;;;;;9.00;8.53;;;;;;;6.20;90.17;102188.88;5099457;28;20610;-67
2022/04/28 02:56:10;;;;;;;11.30;10.00;;;;;;;6.22;90.29;102197.56;5099372;28;20203;-67
2022/04/28 02:58:37;;;;;;;10.27;9.37;;;;;;;6.15;90.59;102196.69;5099143;28;20197;-67
2022/04/28 03:01:06;;;;;;;10.43;9.63;;;;;;;6.14;90.78;102194.06;5099465;28;20661;-67
2022/04/28 03:03:33;;;;;;;10.30;9.67;;;;;;;6.14;90.67;102187.13;5099182;28;20189;-67
2022/04/28 03:11:32;;;;;;;10.07;9.50;;;;;;;6.18;90.84;102195.81;5098967;28;20188;-67
2022/04/28 03:13:59;;;;;;;11.10;9.57;;;;;;;6.12;91.08;102201.88;5098980;28;20687;-67
2022/04/28 03:16:27;;;;;;;11.90;10.07;;;;;;;6.17;90.86;102200.16;5099022;28;20257;-67
2022/04/28 03:19:01;;;;;;;10.30;9.40;;;;;;;6.15;90.91;102194.09;5098846;28;20180;-67
2022/04/28 03:21:29;;;;;;;18.67;10.57;;;;;;;6.09;90.98;102201.88;5099514;28;20199;-67
2022/04/28 03:23:55;;;;;;;10.80;10.10;;;;;;;5.99;90.98;102194.91;5098671;28;20188;-67
2022/04/28 03:26:22;;;;;;;10.90;10.03;;;;;;;5.88;91.58;102199.22;5098622;28;20188;-67
2022/04/28 03:28:49;;;;;;;10.53;9.70;;;;;;;5.82;92.10;102194.00;5098549;28;20656;-67
2022/04/28 03:31:15;;;;;;;10.33;9.50;;;;;;;5.72;92.98;102196.59;5098547;28;20196;-67
2022/04/28 03:33:55;;;;;;;12.37;11.03;;;;;;;5.76;92.56;102200.91;5099462;28;20199;-67
2022/04/28 03:39:06;;;;;;;12.00;11.00;;;;;;;5.75;93.22;102201.78;5116626;28;20221;-67
2022/04/28 03:41:33;;;;;;;10.33;9.60;;;;;;;5.74;93.15;102196.59;5098340;28;20247;-67
2022/04/28 03:43:59;;;;;;;11.17;10.37;;;;;;;5.74;93.17;102205.25;5098557;28;20234;-67
2022/04/28 03:46:26;;;;;;;12.60;9.70;;;;;;;5.76;93.54;102202.66;5116627;28;20707;-67
2022/04/28 03:48:52;;;;;;;10.20;9.47;;;;;;;5.76;93.33;102206.09;5098332;28;20227;-67
2022/04/28 03:51:19;;;;;;;9.43;8.60;;;;;;;5.72;93.72;102200.91;5097921;28;20241;-67
2022/04/28 03:53:45;;;;;;;13.07;11.30;;;;;;;5.70;93.94;102206.09;5097975;28;20662;-67
2022/04/28 03:56:12;;;;;;;15.93;12.87;;;;;;;5.66;93.88;102204.34;5098009;28;20188;-67
2022/04/28 03:58:39;;;;;;;75.17;40.50;;;;;;;5.65;94.10;102206.97;5098853;28;20593;-67
2022/04/28 04:01:06;;;;;;;51.80;31.67;;;;;;;5.62;94.23;102205.19;5098154;28;20188;-67
2022/04/28 04:03:53;;;;;;;25.40;18.20;;;;;;;5.53;94.35;102207.78;5116015;28;20293;-67
2022/04/28 04:06:21;;;;;;;15.30;13.80;;;;;;;5.49;94.56;102216.41;5098611;28;20189;-68
2022/04/28 04:09:04;;;;;;;12.43;11.43;;;;;;;5.41;94.84;102205.13;5098061;28;20528;-68
2022/04/28 04:11:31;;;;;;;10.67;9.97;;;;;;;5.37;94.95;102212.06;5098253;28;20358;-68
2022/04/28 04:13:57;;;;;;;10.03;9.10;;;;;;;5.31;95.03;102211.16;5115904;28;20210;-68
2022/04/28 04:16:24;;;;;;;11.87;10.33;;;;;;;5.33;95.30;102212.03;5097825;28;20347;-68
2022/04/28 04:19:02;;;;;;;10.70;9.90;;;;;;;5.32;95.67;102221.53;5097666;28;20230;-68
2022/04/28 04:21:29;;;;;;;12.80;10.70;;;;;;;5.32;95.96;102212.88;5097676;28;20184;-68
2022/04/28 04:23:57;;;;;;;10.47;9.33;;;;;;;5.29;95.95;102218.94;5097400;28;20200;-68
2022/04/28 04:26:26;;;;;;;9.50;9.10;;;;;;;5.29;95.96;102218.94;5097405;28;20195;-68
2022/04/28 04:28:52;;;;;;;18.47;11.67;;;;;;;5.27;96.23;102215.44;5097944;28;20218;-68
2022/04/28 04:34:53;;;;;;;11.33;10.30;;;;;;;5.32;96.78;102218.06;5097210;28;20215;-68
2022/04/28 04:37:22;;;;;;;12.67;11.37;;;;;;;5.30;97.05;102222.41;5097635;28;20223;-68
2022/04/28 04:39:51;;;;;;;12.47;10.90;;;;;;;5.29;97.03;102231.03;5097263;28;20198;-67
2022/04/28 04:42:18;;;;;;;11.63;10.13;;;;;;;5.24;97.22;102234.50;5097591;28;20185;-67
2022/04/28 04:44:44;;;;;;;12.23;11.10;;;;;;;5.28;96.95;102237.09;5097115;28;20635;-67
2022/04/28 04:47:17;;;;;;;11.67;10.47;;;;;;;5.27;96.98;102240.56;5097497;28;20234;-67
2022/04/28 04:50:03;;;;;;;12.20;10.93;;;;;;;5.23;96.91;102237.94;5115839;28;20273;-67
2022/04/28 04:52:39;;;;;;;11.70;10.73;;;;;;;5.19;96.82;102243.97;5096069;28;20195;-69
2022/04/28 04:55:12;;;;;;;11.53;10.40;;;;;;;5.20;96.80;102252.63;5095245;28;20211;-68
2022/04/28 04:57:53;;;;;;;10.50;9.77;;;;;;;5.25;96.83;102249.22;5092605;28;20206;-68
2022/04/28 05:00:20;;;;;;;11.23;10.17;;;;;;;5.38;96.72;102254.47;5095748;28;20208;-68
2022/04/28 05:03:06;;;;;;;12.57;11.13;;;;;;;5.44;97.12;102251.91;5106381;28;20291;-68
2022/04/28 05:05:53;;;;;;;14.23;9.87;;;;;;;5.46;97.12;102250.19;5102107;28;20189;-67
2022/04/28 05:08:24;;;;;;;11.87;10.87;;;;;;;5.55;96.81;102255.41;5096565;28;20210;-68
2022/04/28 05:11:00;;;;;;;11.87;10.40;;;;;;;5.61;97.07;102264.97;5115382;28;20294;-68
2022/04/28 05:13:26;;;;;;;11.67;10.57;;;;;;;5.66;96.92;102253.72;5096522;28;20218;-67
2022/04/28 05:15:55;;;;;;;14.13;12.37;;;;;;;5.74;96.83;102258.94;5096323;28;20211;-67
2022/04/28 05:18:50;;;;;;;12.10;10.83;;;;;;;5.78;97.07;102256.34;5086555;28;20247;-67
2022/04/28 05:21:35;;;;;;;26.17;13.77;;;;;;;5.88;97.24;102264.19;5115226;28;20293;-67
2022/04/28 05:24:20;;;;;;;20.10;12.93;;;;;;;5.95;97.30;102265.97;5114809;28;20183;-67
2022/04/28 05:27:05;;;;;;;14.00;10.93;;;;;;;6.07;97.62;102266.00;5114718;28;20635;-67
2022/04/28 05:29:51;;;;;;;13.00;11.00;;;;;;;6.20;97.29;102266.91;5115040;28;20180;-68
2022/04/28 05:32:36;;;;;;;16.37;11.80;;;;;;;6.32;96.32;102274.72;5114612;28;20179;-67
2022/04/28 05:35:11;;;;;;;13.07;11.37;;;;;;;6.37;96.39;102274.75;5093158;28;20681;-68
2022/04/28 05:37:39;;;;;;;12.00;10.80;;;;;;;6.37;95.85;102274.75;5093158;28;20710;-68
2022/04/28 05:40:06;;;;;;;11.97;10.80;;;;;;;6.46;95.52;102278.22;5113525;28;20281;-68
2022/04/28 05:48:04;;;;;;;12.20;10.83;;;;;;;6.76;93.29;102287.75;5092770;28;20323;-67
2022/04/28 05:50:40;;;;;;;18.57;12.40;;;;;;;6.82;92.60;102289.50;5094345;28;20230;-68
2022/04/28 05:53:07;;;;;;;14.67;10.17;;;;;;;6.94;91.97;102294.69;5094758;28;20192;-68
2022/04/28 05:55:35;;;;;;;21.50;11.00;;;;;;;6.99;91.84;102297.28;5094595;28;20699;-68
2022/04/28 05:58:01;;;;;;;12.53;11.27;;;;;;;7.08;91.02;102297.28;5093957;28;20209;-68
2022/04/28 06:00:30;;;;;;;12.00;11.03;;;;;;;7.12;92.12;102304.22;5112278;28;20532;-67
2022/04/28 06:02:59;;;;;;;12.50;11.23;;;;;;;7.27;90.29;102301.56;5095420;28;20232;-68
2022/04/28 06:05:33;;;;;;;14.90;11.53;;;;;;;7.36;90.35;102301.56;5093877;28;20180;-68
2022/04/28 06:07:59;;;;;;;18.20;10.73;;;;;;;7.42;90.13;102304.13;5086201;28;20679;-68
2022/04/28 06:10:26;;;;;;;14.83;10.80;;;;;;;7.52;90.88;102304.13;5086199;28;20186;-68
2022/04/28 06:12:56;;;;;;;12.80;11.53;;;;;;;7.78;88.26;102304.88;5094730;28;20728;-68
2022/04/28 06:15:34;;;;;;;17.23;10.40;;;;;;;7.80;86.78;102305.78;5110193;28;20205;-67
2022/04/28 06:18:16;;;;;;;10.47;9.77;;;;;;;7.84;87.69;102307.47;5093585;28;20236;-68
2022/04/28 06:20:43;;;;;;;14.53;10.03;;;;;;;7.86;87.10;102305.75;5094101;28;20189;-67
2022/04/28 06:23:12;;;;;;;11.63;10.43;;;;;;;7.99;87.48;102304.78;5095445;28;20239;-67
2022/04/28 06:25:44;;;;;;;12.63;10.50;;;;;;;8.09;87.83;102305.63;5094432;28;20177;-68
2022/04/28 06:28:11;;;;;;;10.90;10.00;;;;;;;8.21;87.93;102300.31;5095320;28;20296;-67
2022/04/28 06:30:40;;;;;;;10.97;9.87;;;;;;;8.40;84.75;102306.34;5095406;28;20689;-67
2022/04/28 06:33:30;;;;;;;9.80;9.30;;;;;;;8.39;84.81;102307.22;5075698;28;20281;-67
2022/04/28 06:36:01;;;;;;;13.73;11.00;;;;;;;8.46;84.32;102308.91;5096036;28;20254;-67
2022/04/28 06:38:33;;;;;;;10.50;9.63;;;;;;;8.59;84.67;102312.31;5095150;28;20300;-68
2022/04/28 06:41:02;;;;;;;12.60;10.93;;;;;;;8.53;83.58;102315.81;5095281;28;20655;-68
2022/04/28 06:43:29;;;;;;;11.17;10.23;;;;;;;8.68;83.34;102319.19;5095550;28;20185;-68
2022/04/28 06:46:19;;;;;;;10.47;9.67;;;;;;;8.79;83.93;102328.69;5075393;28;20383;-68
2022/04/28 06:49:05;;;;;;;10.90;10.00;;;;;;;8.86;82.98;102329.50;5113319;28;20201;-67
2022/04/28 06:51:50;;;;;;;10.67;9.60;;;;;;;9.02;82.12;102322.41;5113772;28;20223;-67
2022/04/28 06:54:26;;;;;;;11.83;9.80;;;;;;;9.10;82.10;102325.81;5095125;28;20181;-67
2022/04/28 06:56:55;;;;;;;11.80;10.53;;;;;;;9.23;82.13;102322.19;5094991;28;20215;-67
2022/04/28 06:59:21;;;;;;;12.80;10.53;;;;;;;9.37;82.03;102322.06;5095068;28;20194;-68
2022/04/28 07:01:50;;;;;;;10.67;10.07;;;;;;;9.57;82.05;102320.09;5095053;28;20563;-68
2022/04/28 07:04:18;;;;;;;10.73;9.93;;;;;;;9.75;80.44;102332.06;5095113;28;20197;-68
2022/04/28 07:06:44;;;;;;;12.07;10.87;;;;;;;9.85;77.94;102332.81;5095028;28;20630;-68
2022/04/28 07:09:17;;;;;;;13.87;10.23;;;;;;;10.02;78.96;102338.72;5095079;28;20603;-68
2022/04/28 07:11:45;;;;;;;11.50;10.53;;;;;;;10.08;78.47;102341.28;5094995;28;20658;-68
2022/04/28 07:14:27;;;;;;;17.07;8.87;;;;;;;10.17;77.73;102338.53;5095215;28;20280;-68
2022/04/28 07:17:12;;;;;;;9.93;9.43;;;;;;;10.21;77.68;102349.78;5113574;28;20266;-68
2022/04/28 07:19:53;;;;;;;11.13;9.83;;;;;;;10.29;77.55;102342.75;5094663;28;20196;-68
2022/04/28 07:22:19;;;;;;;11.10;10.10;;;;;;;10.37;78.51;102342.66;5094990;28;20225;-68
2022/04/28 07:24:46;;;;;;;14.13;10.03;;;;;;;10.40;76.97;102351.31;5094889;28;20189;-68
2022/04/28 07:27:15;;;;;;;12.30;10.97;;;;;;;10.54;76.61;102342.41;5098503;28;20247;-69
2022/04/28 07:29:50;;;;;;;11.43;9.93;;;;;;;10.57;76.28;102348.44;5098837;28;20191;-69
2022/04/28 07:32:34;;;;;;;11.03;10.20;;;;;;;10.70;75.38;102347.38;5098472;28;20192;-68
2022/04/28 07:35:12;;;;;;;10.83;9.87;;;;;;;10.80;76.46;102342.88;5117211;28;20208;-68
2022/04/28 07:37:57;;;;;;;9.70;9.00;;;;;;;10.86;76.22;102350.63;5117141;28;20231;-68
2022/04/28 07:40:30;;;;;;;10.27;9.57;;;;;;;10.97;75.50;102358.31;5117448;28;20181;-68
2022/04/28 07:42:59;;;;;;;14.93;11.73;;;;;;;11.00;74.59;102367.00;5098315;28;20189;-68
2022/04/28 07:45:26;;;;;;;9.87;9.17;;;;;;;11.15;74.62;102362.38;5098194;28;20276;-68
2022/04/28 07:47:54;;;;;;;12.03;11.00;;;;;;;11.10;72.66;102362.47;5098129;28;20236;-68
2022/04/28 07:50:23;;;;;;;14.47;10.80;;;;;;;11.12;74.00;102365.91;5081588;28;20189;-68
2022/04/28 07:52:53;;;;;;;13.33;11.27;;;;;;;11.26;74.67;102371.78;5098440;28;20651;-68
2022/04/28 07:55:20;;;;;;;10.70;9.80;;;;;;;11.36;73.46;102362.00;5099140;28;20197;-68
2022/04/28 07:57:50;;;;;;;11.17;10.30;;;;;;;11.38;73.92;102368.09;5098021;28;20334;-68
2022/04/28 08:00:26;;;;;;;11.30;10.47;;;;;;;11.47;71.83;102367.91;5098867;28;20231;-68
2022/04/28 08:02:55;;;;;;;11.80;10.40;;;;;;;11.47;72.49;102380.16;5097791;28;20707;-68
2022/04/28 08:05:31;;;;;;;11.07;10.27;;;;;;;11.44;72.28;102378.47;5098808;28;20173;-68
2022/04/28 08:07:59;;;;;;;12.10;10.33;;;;;;;11.47;72.89;102374.91;5098050;28;20258;-68
2022/04/28 08:10:26;;;;;;;11.20;10.60;;;;;;;11.51;72.07;102376.59;5097941;28;20197;-68
2022/04/28 08:12:53;;;;;;;11.47;10.27;;;;;;;11.63;73.65;102380.72;5097709;28;20212;-68
2022/04/28 08:15:38;;;;;;;10.63;9.83;;;;;;;11.68;73.01;102379.75;5116397;28;20278;-68
2022/04/28 08:18:06;;;;;;;11.27;10.53;;;;;;;11.77;72.76;102374.31;5097545;28;20213;-68
2022/04/28 08:20:33;;;;;;;11.87;10.77;;;;;;;11.81;72.85;102380.44;5097609;28;20203;-68
2022/04/28 08:23:00;;;;;;;11.40;10.23;;;;;;;11.94;72.30;102370.56;5115786;28;20182;-68
2022/04/28 08:25:27;;;;;;;11.27;10.37;;;;;;;12.02;72.81;102369.50;5097529;28;20184;-68
2022/04/28 08:27:55;;;;;;;12.40;11.17;;;;;;;12.13;72.98;102377.13;5097565;28;20215;-68
2022/04/28 08:30:21;;;;;;;11.33;10.33;;;;;;;12.24;71.65;102385.66;5098172;28;20192;-68
2022/04/28 08:32:48;;;;;;;12.60;10.43;;;;;;;12.39;69.99;102385.31;5097530;28;20183;-69
2022/04/28 08:35:15;;;;;;;12.83;11.67;;;;;;;12.39;71.27;102382.69;5098111;28;20254;-68
2022/04/28 08:37:42;;;;;;;11.27;10.37;;;;;;;12.35;69.42;102388.03;5096133;28;20217;-68
2022/04/28 08:40:09;;;;;;;13.17;11.27;;;;;;;12.47;69.92;102392.16;5116055;28;20216;-68
2022/04/28 08:42:37;;;;;;;11.43;10.63;;;;;;;12.52;69.50;102391.19;5097934;28;20517;-68
2022/04/28 08:45:28;;;;;;;12.70;10.77;;;;;;;12.66;70.97;102388.25;5107191;28;20228;-68
2022/04/28 08:48:18;;;;;;;11.97;10.40;;;;;;;12.75;69.90;102393.28;5115227;28;20223;-68
2022/04/28 08:50:48;;;;;;;10.43;9.67;;;;;;;12.84;68.98;102395.66;5115701;28;20185;-68
2022/04/28 08:53:14;;;;;;;13.03;10.97;;;;;;;12.94;69.13;102397.19;5096994;28;20250;-68
2022/04/28 08:55:42;;;;;;;11.37;10.50;;;;;;;12.92;68.14;102395.47;5096832;28;20589;-68
2022/04/28 08:58:09;;;;;;;13.37;9.93;;;;;;;12.98;67.36;102399.75;5096737;28;20209;-69
2022/04/28 09:00:45;;;;;;;10.47;9.60;;;;;;;12.84;67.90;102392.19;5096702;28;20199;-68
2022/04/28 09:03:24;;;;;;;12.50;11.30;;;;;;;12.77;68.37;102399.34;5115082;28;20527;-68
2022/04/28 09:06:24;;;;;;;11.73;10.77;;;;;;;12.81;67.40;102401.00;5101779;28;20211;-68
2022/04/28 09:09:04;;;;;;;10.17;9.60;;;;;;;12.87;68.27;102397.38;5115241;28;20180;-68
2022/04/28 09:11:50;;;;;;;10.90;10.13;;;;;;;13.02;67.76;102402.28;5115399;28;20171;-68
2022/04/28 09:14:42;;;;;;;10.80;10.07;;;;;;;12.93;67.38;102392.84;5115373;28;20184;-68
2022/04/28 09:17:12;;;;;;;13.53;10.87;;;;;;;12.98;67.35;102394.47;5096607;28;20307;-69
2022/04/28 09:19:40;;;;;;;11.50;10.40;;;;;;;13.10;67.93;102391.56;5096422;28;20196;-68
2022/04/28 09:22:23;;;;;;;11.13;10.13;;;;;;;13.26;65.76;102389.44;5096498;28;20185;-68
2022/04/28 09:24:57;;;;;;;10.63;9.67;;;;;;;13.31;65.09;102383.16;5096848;28;20206;-68
2022/04/28 09:27:25;;;;;;;11.33;10.30;;;;;;;13.40;66.51;102382.91;5096634;28;20233;-68
2022/04/28 09:29:54;;;;;;;11.33;10.40;;;;;;;13.43;66.15;102381.94;5096308;28;20199;-68
2022/04/28 09:32:21;;;;;;;10.07;9.30;;;;;;;13.55;64.55;102380.78;5096169;28;20276;-68
2022/04/28 09:35:33;;;;;;;11.10;10.20;;;;;;;13.55;64.94;102386.91;5113661;28;20216;-68
2022/04/28 09:38:20;;;;;;;11.70;10.73;;;;;;;13.63;63.79;102389.31;5096421;28;20274;-69
2022/04/28 09:43:58;;;;;;;10.43;9.20;;;;;;;13.56;65.11;102372.81;5096878;28;20655;-68
2022/04/28 09:46:39;;;;;;;11.27;10.03;;;;;;;13.66;64.86;102373.47;5096215;28;20663;-69
2022/04/28 09:49:06;;;;;;;10.87;10.17;;;;;;;13.82;64.81;102369.47;5095741;28;20198;-68
2022/04/28 09:51:59;;;;;;;11.60;10.67;;;;;;;13.92;65.00;102375.34;5095845;28;20204;-68
2022/04/28 09:54:45;;;;;;;10.10;9.20;;;;;;;14.19;63.94;102371.91;5095741;28;20200;-68
2022/04/28 09:57:13;;;;;;;10.57;9.93;;;;;;;14.12;63.70;102378.25;5095664;28;20217;-69
2022/04/28 09:59:41;;;;;;;10.07;9.50;;;;;;;14.19;63.20;102369.28;5096799;28;20285;-68
2022/04/28 10:02:13;;;;;;;10.57;10.10;;;;;;;14.15;63.86;102374.69;5114281;28;20185;-68
2022/04/28 10:04:42;;;;;;;11.37;10.37;;;;;;;14.09;62.37;102383.63;5095653;28;20186;-68
2022/04/28 10:07:34;;;;;;;9.90;9.27;;;;;;;14.08;60.97;102375.78;5095762;28;20209;-69
2022/04/28 10:10:00;;;;;;;11.53;10.50;;;;;;;14.25;62.73;102366.47;5095666;28;20192;-68
2022/04/28 10:12:27;;;;;;;9.20;8.83;;;;;;;14.34;62.72;102370.59;5095584;28;20189;-68
2022/04/28 10:15:11;;;;;;;11.70;10.67;;;;;;;14.38;61.69;102359.06;5095874;28;20193;-68
2022/04/28 10:17:46;;;;;;;12.73;10.03;;;;;;;14.16;64.23;102355.34;5113626;28;20209;-69
2022/04/28 10:20:31;;;;;;;10.87;8.87;;;;;;;14.21;64.38;102363.94;5113756;28;20256;-68
2022/04/28 10:32:22;;;;;;;11.37;10.00;;;;;;;14.27;64.02;102355.88;5095535;28;20617;-68
2022/04/28 10:32:59;;;;;;;12.47;11.40;;;;;;;13.85;65.55;102358.84;5113825;28;20197;-70
2022/04/28 10:35:35;;;;;;;13.47;12.23;;;;;;;13.90;67.22;102351.69;5095241;28;20177;-70
2022/04/28 10:38:24;;;;;;;12.63;11.60;;;;;;;13.78;66.71;102365.19;5113651;28;20251;-69
2022/04/28 10:41:10;;;;;;;15.40;12.20;;;;;;;13.71;68.77;102367.13;5113899;28;20579;-70
2022/04/28 10:43:39;;;;;;;14.83;11.83;;;;;;;13.67;69.50;102356.75;5114503;28;20577;-70
2022/04/28 10:46:08;;;;;;;12.53;11.33;;;;;;;13.55;66.52;102354.47;5113543;28;20509;-70
2022/04/28 10:48:43;;;;;;;16.10;10.13;;;;;;;13.56;64.98;102357.03;5113358;28;20701;-70
2022/04/28 10:51:10;;;;;;;12.27;11.17;;;;;;;13.74;67.95;102363.59;5113720;28;20200;-70
2022/04/28 10:53:55;;;;;;;12.33;11.40;;;;;;;13.70;63.77;102359.28;5113468;28;20190;-70
2022/04/28 10:56:23;;;;;;;12.87;11.43;;;;;;;13.85;64.60;102358.84;5113824;28;20236;-70
2022/04/28 10:58:49;;;;;;;12.77;11.57;;;;;;;13.98;62.92;102360.22;5113485;28;20258;-70
2022/04/28 11:01:32;;;;;;;12.87;11.03;;;;;;;14.03;64.27;102360.97;5116034;28;20329;-70
2022/04/28 11:04:01;;;;;;;12.20;11.17;;;;;;;14.10;64.01;102355.53;5099360;28;20546;-70
2022/04/28 11:06:32;;;;;;;15.37;11.53;;;;;;;14.16;63.39;102357.97;5117275;28;20595;-70
2022/04/28 11:09:00;;;;;;;12.40;11.43;;;;;;;14.23;60.35;102364.78;5117605;28;20572;-70
2022/04/28 11:11:41;;;;;;;11.23;10.43;;;;;;;14.24;63.39;102356.84;5117500;28;20189;-71
2022/04/28 11:14:08;;;;;;;11.60;10.60;;;;;;;14.32;64.13;102356.59;5117472;28;20200;-71
2022/04/28 11:16:35;;;;;;;12.43;11.03;;;;;;;14.48;60.83;102355.25;5117195;28;20262;-70
2022/04/28 11:19:02;;;;;;;12.83;11.70;;;;;;;14.64;63.01;102344.19;5117034;28;20190;-71
2022/04/28 11:21:29;;;;;;;11.77;10.53;;;;;;;14.61;59.42;102339.91;5117028;28;20209;-71
2022/04/28 11:23:57;;;;;;;20.70;11.13;;;;;;;14.71;59.58;102343.94;5117282;28;20180;-70
2022/04/28 11:26:42;;;;;;;11.07;10.37;;;;;;;14.90;58.17;102346.00;5117291;28;20215;-70
2022/04/28 11:29:25;;;;;;;12.77;11.60;;;;;;;14.88;61.35;102340.78;5099140;28;20205;-70
2022/04/28 11:31:53;;;;;;;10.63;10.00;;;;;;;15.00;61.57;102335.09;5117371;28;20212;-71
2022/04/28 11:34:21;;;;;;;9.73;9.07;;;;;;;15.09;61.54;102332.16;5116682;28;20189;-71
2022/04/28 11:36:47;;;;;;;10.37;9.50;;;;;;;15.12;57.95;102350.50;5116461;28;20735;-71
2022/04/28 11:39:13;;;;;;;11.03;10.07;;;;;;;15.14;57.69;102350.44;5116616;28;20295;-71
2022/04/28 11:41:42;;;;;;;12.93;11.30;;;;;;;15.19;56.56;102337.09;5116906;28;20201;-71
2022/04/28 11:44:16;;;;;;;11.37;10.23;;;;;;;15.17;56.30;102339.81;5116634;28;20204;-71
2022/04/28 11:46:49;;;;;;;12.07;10.90;;;;;;;15.11;56.84;102340.00;5116459;28;20595;-70
2022/04/28 11:49:20;;;;;;;10.50;9.77;;;;;;;15.14;54.89;102340.78;5116321;28;20231;-71
2022/04/28 11:51:47;;;;;;;10.67;9.70;;;;;;;15.01;55.86;102339.47;5116403;28;20215;-71
2022/04/28 11:54:25;;;;;;;11.37;10.33;;;;;;;15.05;56.38;102335.78;5116359;28;20212;-71
2022/04/28 11:57:06;;;;;;;12.00;10.30;;;;;;;15.16;58.62;102331.94;5116474;28;20279;-71
2022/04/28 11:59:37;;;;;;;9.60;9.00;;;;;;;15.34;59.24;102336.56;5116573;28;20644;-71
2022/04/28 12:02:21;;;;;;;10.37;9.80;;;;;;;15.38;55.85;102328.50;5116819;28;20177;-71
2022/04/28 12:04:48;;;;;;;11.23;10.43;;;;;;;15.38;58.76;102330.28;5116756;28;20230;-72
2022/04/28 12:07:19;;;;;;;11.80;10.83;;;;;;;15.17;59.30;102328.38;5116157;28;20221;-71
2022/04/28 12:15:16;;;;;;;10.50;9.90;;;;;;;15.31;58.19;102326.13;5116367;28;20197;-68
2022/04/28 12:20:57;;;;;;;10.83;10.03;;;;;;;15.37;60.08;102328.56;5115812;28;20242;-69
2022/04/28 12:23:30;;;;;;;11.07;10.00;;;;;;;15.52;58.15;102327.16;5115851;28;20177;-68